Time;durP1;ratioP1;P1;durP2;ratioP2;P2;SDS_P1;SDS_P2;PMS_P1;PMS_P2;Temp;Humidity;BMP_temperature;BMP_pressure;BME280_temperature;BME280_humidity;BME280_pressure;Samples;Min_cycle;Max_cycle;Signal;HPM_P1;HPM_P2
2024/03/04 00:00:00;;;;;;;78.20;45.88;;;9.10;99.90;;;;;;5038360;28;20208;-72
2024/03/04 00:02:31;;;;;;;64.00;39.63;;;9.10;99.90;;;;;;5032327;28;20275;-72
2024/03/04 00:04:58;;;;;;;68.10;44.53;;;9.20;99.90;;;;;;5030755;28;20209;-71
2024/03/04 00:07:25;;;;;;;71.03;45.60;;;9.20;99.90;;;;;;5037326;28;20203;-72
2024/03/04 00:09:52;;;;;;;75.32;44.50;;;9.10;99.90;;;;;;5036877;28;20214;-72
2024/03/04 00:12:20;;;;;;;88.65;50.80;;;9.20;99.90;;;;;;5031985;28;20556;-74
2024/03/04 00:14:47;;;;;;;81.53;50.58;;;9.10;99.90;;;;;;5035343;28;20694;-74
2024/03/04 00:17:14;;;;;;;83.55;49.28;;;9.10;99.90;;;;;;5031970;28;20197;-73
2024/03/04 00:19:42;;;;;;;67.97;43.95;;;9.10;99.90;;;;;;5029669;28;20197;-71
2024/03/04 00:22:09;;;;;;;86.15;50.78;;;9.00;99.90;;;;;;5029901;28;20252;-71
2024/03/04 00:24:36;;;;;;;75.78;44.03;;;9.10;99.90;;;;;;5033231;28;20228;-71
2024/03/04 00:27:03;;;;;;;82.65;50.25;;;9.10;99.90;;;;;;5039079;28;20213;-73
2024/03/04 00:29:30;;;;;;;74.68;44.90;;;9.10;99.90;;;;;;5035724;28;20288;-73
2024/03/04 00:31:57;;;;;;;86.35;48.08;;;9.10;99.90;;;;;;5038894;28;20193;-73
2024/03/04 00:34:25;;;;;;;83.15;52.72;;;9.10;99.90;;;;;;5038473;28;20751;-72
2024/03/04 00:36:53;;;;;;;73.88;45.08;;;9.20;99.90;;;;;;5039540;28;20197;-73
2024/03/04 00:39:21;;;;;;;94.82;52.80;;;9.20;99.90;;;;;;5038507;28;20244;-72
2024/03/04 00:41:48;;;;;;;82.32;49.28;;;9.20;99.90;;;;;;5035899;28;20219;-72
2024/03/04 00:44:15;;;;;;;74.20;46.95;;;9.20;99.90;;;;;;5033342;28;20224;-73
2024/03/04 00:46:42;;;;;;;90.80;52.25;;;9.30;99.90;;;;;;5040304;28;20192;-71
2024/03/04 00:49:09;;;;;;;86.50;48.90;;;9.30;99.90;;;;;;5036056;28;20298;-73
2024/03/04 00:51:37;;;;;;;94.35;52.75;;;9.40;99.90;;;;;;5040069;28;20295;-72
2024/03/04 00:54:06;;;;;;;64.45;44.90;;;9.40;99.90;;;;;;5042815;28;20746;-71
2024/03/04 00:56:33;;;;;;;93.00;53.10;;;9.50;99.90;;;;;;5035298;28;20240;-72
2024/03/04 00:59:02;;;;;;;94.10;54.15;;;9.50;99.90;;;;;;5029273;28;20205;-73
2024/03/04 01:01:29;;;;;;;78.65;47.70;;;9.50;99.90;;;;;;5034882;28;20220;-70
2024/03/04 01:03:56;;;;;;;82.10;51.30;;;9.50;99.90;;;;;;5029969;28;20221;-71
2024/03/04 01:06:23;;;;;;;86.82;51.03;;;9.50;99.90;;;;;;5027301;28;20208;-73
2024/03/04 01:08:50;;;;;;;73.18;45.75;;;9.50;99.90;;;;;;5025185;28;20615;-73
2024/03/04 01:11:18;;;;;;;69.30;43.80;;;9.60;99.90;;;;;;5028193;28;20189;-74
2024/03/04 01:13:45;;;;;;;73.15;45.40;;;9.60;99.90;;;;;;5035295;28;20220;-71
2024/03/04 01:16:12;;;;;;;70.65;45.25;;;9.60;99.90;;;;;;5034326;28;20201;-71
2024/03/04 01:18:40;;;;;;;68.97;46.35;;;9.60;99.90;;;;;;5026902;28;20666;-74
2024/03/04 01:21:07;;;;;;;71.93;46.17;;;9.60;99.90;;;;;;5035998;28;20248;-71
2024/03/04 01:23:34;;;;;;;73.43;45.13;;;9.70;99.90;;;;;;5035905;28;20694;-71
2024/03/04 01:26:01;;;;;;;67.88;44.70;;;9.70;99.90;;;;;;5035056;28;20300;-70
2024/03/04 01:28:30;;;;;;;84.32;47.92;;;9.70;99.90;;;;;;5035251;28;20202;-70
2024/03/04 01:30:57;;;;;;;79.03;45.08;;;9.70;99.90;;;;;;5034858;28;20716;-73
2024/03/04 01:33:24;;;;;;;77.53;45.72;;;9.70;99.90;;;;;;5031427;28;20225;-71
2024/03/04 01:35:51;;;;;;;64.88;44.47;;;9.70;99.90;;;;;;5031514;28;20251;-73
2024/03/04 01:38:18;;;;;;;68.00;43.53;;;9.70;99.90;;;;;;5033871;28;20209;-73
2024/03/04 01:40:45;;;;;;;79.03;48.08;;;9.70;99.90;;;;;;5035613;28;20247;-73
2024/03/04 01:43:13;;;;;;;75.13;46.13;;;9.70;99.90;;;;;;5041760;28;20548;-70
2024/03/04 01:45:42;;;;;;;74.68;47.38;;;9.70;99.90;;;;;;5034735;28;20204;-71
2024/03/04 01:48:10;;;;;;;76.72;49.28;;;9.60;99.90;;;;;;5040788;28;20205;-71
2024/03/04 01:50:41;;;;;;;75.80;44.42;;;9.60;99.90;;;;;;5025186;28;20206;-73
2024/03/04 01:53:09;;;;;;;67.68;42.15;;;9.60;99.90;;;;;;5035193;28;20225;-71
2024/03/04 01:55:38;;;;;;;75.68;48.10;;;9.60;99.90;;;;;;5041866;28;20208;-72
2024/03/04 01:58:06;;;;;;;78.88;48.40;;;9.60;99.90;;;;;;5038129;28;20564;-74
2024/03/04 02:00:39;;;;;;;65.80;43.67;;;9.50;99.90;;;;;;5029298;28;20212;-70
2024/03/04 02:03:07;;;;;;;74.40;46.95;;;9.50;99.90;;;;;;5035522;28;20213;-72
2024/03/04 02:05:35;;;;;;;69.47;42.58;;;9.50;99.90;;;;;;5033983;28;20540;-73
2024/03/04 02:08:03;;;;;;;71.57;46.63;;;9.40;99.90;;;;;;5034094;28;20289;-71
2024/03/04 02:10:30;;;;;;;64.15;44.08;;;9.40;99.90;;;;;;5043316;28;20257;-69
2024/03/04 02:12:57;;;;;;;77.38;46.08;;;9.30;99.90;;;;;;5037642;28;20224;-72
2024/03/04 02:15:24;;;;;;;72.32;42.92;;;9.30;99.90;;;;;;5037431;28;20284;-72
2024/03/04 02:17:52;;;;;;;76.28;46.03;;;9.30;99.90;;;;;;5031495;28;20713;-71
2024/03/04 02:20:24;;;;;;;83.43;49.08;;;9.30;99.90;;;;;;5037098;28;20283;-71
2024/03/04 02:22:54;;;;;;;69.50;41.50;;;9.20;99.90;;;;;;5038479;28;20681;-73
2024/03/04 02:25:22;;;;;;;72.85;46.08;;;9.20;99.90;;;;;;5035338;28;20209;-71
2024/03/04 02:27:49;;;;;;;75.97;45.50;;;9.10;99.90;;;;;;5035515;28;20219;-71
2024/03/04 02:30:17;;;;;;;73.57;44.97;;;9.10;99.90;;;;;;5028733;28;20210;-72
2024/03/04 02:32:45;;;;;;;71.10;46.28;;;9.00;99.90;;;;;;5029692;28;20240;-71
2024/03/04 02:35:12;;;;;;;75.80;45.00;;;9.00;99.90;;;;;;5022372;28;20706;-72
2024/03/04 02:37:39;;;;;;;71.10;43.97;;;9.00;99.90;;;;;;5033305;28;20287;-71
2024/03/04 02:40:09;;;;;;;71.93;43.92;;;8.90;99.90;;;;;;5026107;28;20208;-72
2024/03/04 02:42:36;;;;;;;75.55;44.58;;;8.90;99.90;;;;;;5027545;28;20259;-71
2024/03/04 02:45:04;;;;;;;71.35;47.15;;;8.90;99.90;;;;;;5029620;28;20550;-71
2024/03/04 02:47:34;;;;;;;72.65;44.15;;;8.80;99.90;;;;;;5027979;28;20236;-72
2024/03/04 02:50:02;;;;;;;86.20;51.33;;;8.80;99.90;;;;;;5032304;28;20208;-71
2024/03/04 02:52:29;;;;;;;81.90;49.60;;;8.70;99.90;;;;;;5033317;28;20288;-73
2024/03/04 02:54:56;;;;;;;65.20;42.95;;;8.70;99.90;;;;;;5030178;28;20235;-70
2024/03/04 02:57:24;;;;;;;76.40;46.53;;;8.80;99.90;;;;;;5033203;28;20591;-72
2024/03/04 02:59:51;;;;;;;82.78;46.65;;;8.70;99.90;;;;;;5033264;28;20662;-73
2024/03/04 03:02:18;;;;;;;65.10;44.50;;;8.60;99.90;;;;;;5033766;28;20236;-73
2024/03/04 03:04:46;;;;;;;75.10;45.63;;;8.60;99.90;;;;;;5027654;28;20279;-73
2024/03/04 03:07:13;;;;;;;70.55;44.95;;;8.60;99.90;;;;;;5029154;28;20255;-70
2024/03/04 03:09:40;;;;;;;93.20;51.45;;;8.50;99.90;;;;;;5033471;28;20591;-70
2024/03/04 03:12:07;;;;;;;90.20;50.28;;;8.40;99.90;;;;;;5032669;28;20189;-71
2024/03/04 03:14:37;;;;;;;78.60;45.58;;;8.40;99.90;;;;;;5026271;28;20267;-73
2024/03/04 03:17:05;;;;;;;63.67;42.67;;;8.40;99.90;;;;;;5036007;28;20231;-70
2024/03/04 03:19:33;;;;;;;78.93;45.95;;;8.30;99.90;;;;;;5035134;28;20204;-72
2024/03/04 03:22:00;;;;;;;83.35;48.20;;;8.30;99.90;;;;;;5031604;28;20220;-72
2024/03/04 03:24:27;;;;;;;67.07;43.55;;;8.30;99.90;;;;;;5031767;28;20691;-72
2024/03/04 03:26:54;;;;;;;97.95;53.67;;;8.30;99.90;;;;;;5107579;22;20796;-71
2024/03/04 03:29:22;;;;;;;74.40;44.90;;;8.20;99.90;;;;;;5024867;28;20612;-71
2024/03/04 03:31:50;;;;;;;89.97;52.95;;;8.10;99.90;;;;;;5013414;28;20259;-72
2024/03/04 03:34:17;;;;;;;77.95;47.60;;;8.20;99.90;;;;;;5018278;28;20311;-71
2024/03/04 03:36:44;;;;;;;100.25;54.40;;;8.10;99.90;;;;;;5020858;28;20587;-71
2024/03/04 03:39:12;;;;;;;102.78;55.90;;;8.10;99.90;;;;;;5014106;28;20621;-74
2024/03/04 03:41:39;;;;;;;80.70;47.65;;;8.00;99.90;;;;;;5018615;28;20350;-72
2024/03/04 03:44:07;;;;;;;86.20;50.08;;;8.00;99.90;;;;;;5009362;28;20225;-73
2024/03/04 03:46:34;;;;;;;81.55;47.95;;;8.00;99.90;;;;;;5014585;28;20288;-73
2024/03/04 03:49:02;;;;;;;89.03;52.47;;;8.00;99.90;;;;;;5013191;28;20209;-70
2024/03/04 03:51:29;;;;;;;94.80;52.65;;;8.00;99.90;;;;;;5023203;28;20209;-71
2024/03/04 03:53:56;;;;;;;85.07;49.30;;;7.90;99.90;;;;;;5015950;28;20303;-71
2024/03/04 03:56:23;;;;;;;96.00;54.05;;;7.90;99.90;;;;;;5023981;28;20279;-71
2024/03/04 03:58:51;;;;;;;88.88;49.22;;;7.90;99.90;;;;;;5011671;28;20656;-73
2024/03/04 04:01:18;;;;;;;106.80;56.10;;;7.90;99.90;;;;;;5012871;28;20309;-72
2024/03/04 04:03:45;;;;;;;137.63;65.05;;;7.90;99.90;;;;;;5023582;28;20239;-71
2024/03/04 04:06:13;;;;;;;134.90;61.33;;;7.90;99.90;;;;;;5012557;28;20201;-72
2024/03/04 04:08:42;;;;;;;124.10;64.72;;;7.70;99.90;;;;;;5019220;28;20208;-71
2024/03/04 04:11:09;;;;;;;135.32;65.07;;;7.70;99.90;;;;;;5012986;28;20209;-73
2024/03/04 04:13:36;;;;;;;147.05;65.68;;;7.60;99.90;;;;;;5017573;28;20217;-73
2024/03/04 04:16:03;;;;;;;222.38;78.70;;;7.60;99.90;;;;;;5016546;28;20200;-70
2024/03/04 04:18:30;;;;;;;238.57;80.72;;;7.60;99.90;;;;;;5012732;28;20564;-71
2024/03/04 04:20:57;;;;;;;315.48;92.30;;;7.60;99.90;;;;;;5020087;28;20209;-70
2024/03/04 04:23:25;;;;;;;150.10;63.47;;;7.60;99.90;;;;;;5015218;28;20220;-73
2024/03/04 04:25:52;;;;;;;186.50;70.05;;;7.60;99.90;;;;;;5014455;28;20316;-71
2024/03/04 04:28:19;;;;;;;166.48;71.20;;;7.60;99.90;;;;;;5014109;28;20620;-73
2024/03/04 04:30:46;;;;;;;154.77;75.72;;;7.60;99.90;;;;;;5014264;28;20546;-71
2024/03/04 04:33:13;;;;;;;116.55;59.80;;;7.60;99.90;;;;;;5012891;28;20217;-71
2024/03/04 04:35:40;;;;;;;110.65;59.75;;;7.60;99.90;;;;;;5005025;28;20272;-73
2024/03/04 04:38:07;;;;;;;110.57;61.15;;;7.80;99.90;;;;;;5011605;28;20558;-73
2024/03/04 04:40:37;;;;;;;115.75;58.75;;;7.90;99.90;;;;;;5012797;28;20205;-70
2024/03/04 04:43:05;;;;;;;145.57;71.97;;;8.00;99.90;;;;;;5016110;28;20229;-70
2024/03/04 04:45:32;;;;;;;198.32;77.55;;;8.00;99.90;;;;;;5011780;28;20205;-70
2024/03/04 04:47:59;;;;;;;183.98;82.40;;;8.00;99.90;;;;;;5012362;28;20210;-71
2024/03/04 04:50:26;;;;;;;132.23;63.75;;;8.10;99.90;;;;;;5014845;28;20663;-73
2024/03/04 04:52:54;;;;;;;106.78;54.78;;;8.10;99.90;;;;;;5022732;28;20235;-72
2024/03/04 04:55:20;;;;;;;156.63;71.60;;;8.10;99.90;;;;;;5018615;28;20201;-73
2024/03/04 04:57:49;;;;;;;128.55;67.43;;;8.10;99.90;;;;;;5018426;28;20254;-73
2024/03/04 05:00:17;;;;;;;156.95;74.80;;;8.10;99.90;;;;;;5020286;28;20232;-73
2024/03/04 05:02:43;;;;;;;119.35;58.72;;;8.10;99.90;;;;;;5016932;28;20310;-71
2024/03/04 05:05:10;;;;;;;116.82;61.50;;;8.20;99.90;;;;;;5012806;28;20602;-71
2024/03/04 05:07:39;;;;;;;153.43;71.93;;;8.30;99.90;;;;;;5015431;28;20232;-74
2024/03/04 05:10:07;;;;;;;139.48;67.60;;;8.40;99.90;;;;;;5023952;28;20258;-72
2024/03/04 05:12:34;;;;;;;156.60;73.07;;;8.30;99.90;;;;;;5017423;28;20200;-70
2024/03/04 05:15:04;;;;;;;107.45;57.90;;;8.40;99.90;;;;;;5020421;28;20288;-73
2024/03/04 05:17:31;;;;;;;129.63;66.88;;;8.40;99.90;;;;;;5016560;28;20209;-71
2024/03/04 05:19:58;;;;;;;130.65;63.35;;;8.50;99.90;;;;;;5016072;28;20201;-71
2024/03/04 05:22:25;;;;;;;125.25;63.45;;;8.60;99.90;;;;;;5023066;28;20764;-73
2024/03/04 05:24:52;;;;;;;112.32;55.55;;;8.60;99.90;;;;;;5020924;28;20550;-71
2024/03/04 05:27:19;;;;;;;137.82;61.90;;;8.60;99.90;;;;;;5018280;28;20301;-70
2024/03/04 05:29:46;;;;;;;176.23;78.47;;;8.50;99.90;;;;;;5015333;28;20716;-71
2024/03/04 05:32:14;;;;;;;133.68;67.45;;;8.50;99.90;;;;;;5025443;28;20243;-71
2024/03/04 05:34:43;;;;;;;121.75;62.75;;;8.40;99.90;;;;;;5022871;28;20308;-71
2024/03/04 05:37:11;;;;;;;118.65;63.20;;;8.50;99.90;;;;;;5014872;28;20220;-73
2024/03/04 05:39:38;;;;;;;126.68;66.43;;;8.60;99.90;;;;;;5023584;28;20682;-70
2024/03/04 05:42:05;;;;;;;121.78;65.68;;;8.60;99.90;;;;;;5022751;28;20251;-72
2024/03/04 05:44:32;;;;;;;94.85;56.05;;;8.70;99.90;;;;;;5016257;28;20252;-72
2024/03/04 05:47:00;;;;;;;113.72;64.25;;;8.80;99.90;;;;;;5012153;28;20729;-71
2024/03/04 05:49:28;;;;;;;122.07;63.63;;;8.90;99.90;;;;;;5020662;28;20686;-73
2024/03/04 05:51:58;;;;;;;144.35;71.88;;;8.90;99.90;;;;;;5010417;28;20206;-71
2024/03/04 05:54:25;;;;;;;91.63;55.08;;;8.80;99.90;;;;;;5022277;28;20231;-71
2024/03/04 05:56:52;;;;;;;97.72;54.95;;;8.90;99.90;;;;;;5015019;28;20252;-72
2024/03/04 05:59:19;;;;;;;122.53;67.25;;;9.00;99.90;;;;;;5021177;28;20232;-71
2024/03/04 06:01:46;;;;;;;132.25;66.40;;;9.00;99.90;;;;;;5013427;28;20216;-74
2024/03/04 06:04:13;;;;;;;128.70;66.00;;;9.00;99.90;;;;;;5013755;28;20230;-71
2024/03/04 06:06:42;;;;;;;124.68;64.40;;;9.00;99.90;;;;;;5014722;28;20205;-74
2024/03/04 06:09:09;;;;;;;127.30;63.67;;;8.90;99.90;;;;;;5008309;28;20216;-70
2024/03/04 06:11:36;;;;;;;107.18;56.63;;;9.00;99.90;;;;;;5014610;28;20207;-72
2024/03/04 06:14:03;;;;;;;114.82;60.30;;;9.10;99.90;;;;;;5018729;28;20619;-72
2024/03/04 06:16:31;;;;;;;140.55;71.57;;;9.10;99.90;;;;;;5022806;28;20254;-75
2024/03/04 06:18:58;;;;;;;128.80;68.28;;;9.00;99.90;;;;;;5020652;28;20201;-72
2024/03/04 06:21:25;;;;;;;156.48;77.22;;;9.00;99.90;;;;;;5015647;28;20216;-74
2024/03/04 06:23:53;;;;;;;137.60;69.88;;;8.90;99.90;;;;;;5013340;28;20229;-74
2024/03/04 06:26:20;;;;;;;116.03;65.10;;;9.00;99.90;;;;;;5027347;28;20215;-73
2024/03/04 06:28:47;;;;;;;122.90;62.97;;;9.00;99.90;;;;;;5014271;28;20530;-72
2024/03/04 06:31:14;;;;;;;123.38;65.97;;;9.10;99.90;;;;;;5016429;28;20194;-73
2024/03/04 06:33:41;;;;;;;115.35;64.88;;;9.20;99.90;;;;;;5020014;28;20306;-75
2024/03/04 06:36:08;;;;;;;133.23;69.03;;;9.30;99.90;;;;;;5012232;28;20676;-71
2024/03/04 06:38:35;;;;;;;116.43;63.63;;;9.40;99.90;;;;;;5018370;28;20283;-72
2024/03/04 06:41:05;;;;;;;110.75;58.70;;;9.40;99.90;;;;;;5016484;28;20213;-70
2024/03/04 06:43:32;;;;;;;116.00;63.53;;;9.40;99.90;;;;;;5009019;28;20221;-72
2024/03/04 06:45:59;;;;;;;118.97;65.15;;;9.50;99.90;;;;;;5019306;28;20204;-71
2024/03/04 06:48:26;;;;;;;120.13;64.30;;;9.60;99.90;;;;;;5012947;28;20205;-72
2024/03/04 06:50:53;;;;;;;125.13;66.20;;;9.60;99.90;;;;;;5020165;28;20252;-71
2024/03/04 06:53:20;;;;;;;103.55;61.20;;;9.70;99.90;;;;;;5017262;28;20217;-71
2024/03/04 06:55:47;;;;;;;116.20;60.65;;;9.70;99.90;;;;;;5024296;28;20259;-72
2024/03/04 06:58:16;;;;;;;107.60;61.13;;;9.80;99.90;;;;;;5015530;28;20226;-73
2024/03/04 07:00:43;;;;;;;115.30;61.70;;;9.80;99.90;;;;;;5019331;28;20232;-73
2024/03/04 07:03:10;;;;;;;115.78;61.63;;;9.90;99.90;;;;;;5021615;28;20736;-74
2024/03/04 07:05:37;;;;;;;107.45;62.38;;;9.90;99.90;;;;;;5012459;28;20197;-72
2024/03/04 07:08:06;;;;;;;111.05;64.80;;;10.00;99.90;;;;;;5013544;28;20211;-73
2024/03/04 07:10:33;;;;;;;101.65;61.53;;;9.90;99.90;;;;;;5012993;28;20220;-73
2024/03/04 07:13:00;;;;;;;108.68;56.58;;;10.10;99.90;;;;;;5022226;28;20264;-73
2024/03/04 07:15:29;;;;;;;113.88;63.25;;;10.20;99.90;;;;;;5010784;28;20255;-72
2024/03/04 07:17:57;;;;;;;106.78;56.60;;;10.30;99.90;;;;;;5009488;28;20252;-71
2024/03/04 07:20:23;;;;;;;113.53;63.53;;;10.40;99.90;;;;;;5022607;28;20598;-72
2024/03/04 07:22:50;;;;;;;109.82;62.78;;;10.40;99.90;;;;;;5016669;28;20252;-73
2024/03/04 07:25:17;;;;;;;115.30;64.38;;;10.40;99.90;;;;;;5014003;28;20275;-73
2024/03/04 07:27:44;;;;;;;122.07;65.63;;;10.50;99.90;;;;;;5021479;28;20237;-71
2024/03/04 07:30:12;;;;;;;119.93;63.03;;;10.50;99.90;;;;;;5028211;28;20197;-73
2024/03/04 07:32:40;;;;;;;110.07;62.00;;;10.60;99.90;;;;;;5015397;28;20205;-75
2024/03/04 07:35:08;;;;;;;111.47;60.75;;;10.60;99.90;;;;;;5004742;28;20607;-73
2024/03/04 07:37:35;;;;;;;96.95;58.80;;;10.70;99.90;;;;;;5012291;28;20244;-72
2024/03/04 07:40:02;;;;;;;107.47;58.35;;;10.70;99.90;;;;;;5007015;28;20221;-75
2024/03/04 07:42:29;;;;;;;117.72;63.83;;;10.80;99.90;;;;;;5017659;28;20203;-74
2024/03/04 07:44:56;;;;;;;87.72;50.33;;;10.80;99.90;;;;;;5014367;28;20542;-77
2024/03/04 07:47:23;;;;;;;91.47;53.60;;;10.90;99.90;;;;;;5016479;28;20485;-75
2024/03/04 07:49:51;;;;;;;103.78;59.05;;;11.00;99.90;;;;;;5013258;28;20205;-73
2024/03/04 07:52:18;;;;;;;109.20;58.25;;;10.90;99.90;;;;;;5012969;28;20197;-73
2024/03/04 07:54:45;;;;;;;96.22;59.10;;;11.00;99.90;;;;;;5015100;28;20227;-72
2024/03/04 07:57:13;;;;;;;93.45;54.33;;;11.10;99.90;;;;;;5012490;28;20198;-71
2024/03/04 07:59:40;;;;;;;97.32;57.15;;;11.20;99.90;;;;;;5018692;28;20211;-70
2024/03/04 08:02:07;;;;;;;94.63;57.05;;;11.30;99.90;;;;;;5020596;28;20198;-72
2024/03/04 08:04:35;;;;;;;87.85;55.70;;;11.30;99.90;;;;;;5020519;28;20235;-71
2024/03/04 08:07:03;;;;;;;98.03;60.50;;;11.30;99.90;;;;;;5014645;28;20189;-72
2024/03/04 08:09:30;;;;;;;100.63;62.22;;;11.30;99.90;;;;;;5017353;28;20553;-74
2024/03/04 08:11:57;;;;;;;98.00;59.20;;;11.30;99.90;;;;;;5012703;28;20555;-72
2024/03/04 08:14:24;;;;;;;104.03;59.20;;;11.40;99.90;;;;;;5014947;28;20214;-74
2024/03/04 08:16:52;;;;;;;89.43;56.47;;;11.40;99.90;;;;;;5011584;28;20200;-72
2024/03/04 08:19:18;;;;;;;92.28;52.05;;;11.40;99.90;;;;;;5007573;28;20255;-71
2024/03/04 08:21:45;;;;;;;85.88;57.10;;;11.50;99.90;;;;;;5010984;28;20302;-75
2024/03/04 08:24:14;;;;;;;96.68;57.53;;;11.60;99.90;;;;;;5010040;28;20264;-73
2024/03/04 08:26:42;;;;;;;86.90;54.55;;;11.70;99.90;;;;;;5008905;28;20562;-73
2024/03/04 08:29:09;;;;;;;95.55;57.88;;;11.90;99.90;;;;;;5002765;28;20194;-72
2024/03/04 08:31:37;;;;;;;87.10;56.10;;;12.10;99.90;;;;;;5015809;28;20201;-72
2024/03/04 08:34:05;;;;;;;89.18;54.00;;;12.10;99.90;;;;;;5005231;28;20213;-72
2024/03/04 08:36:32;;;;;;;85.13;54.72;;;12.20;99.90;;;;;;5006425;28;20225;-71
2024/03/04 08:38:59;;;;;;;78.45;50.55;;;12.30;99.90;;;;;;5012524;28;20233;-72
2024/03/04 08:41:27;;;;;;;85.90;55.65;;;12.30;99.90;;;;;;5006698;28;20648;-71
2024/03/04 08:43:54;;;;;;;83.15;53.00;;;12.30;99.90;;;;;;5009783;28;20680;-72
2024/03/04 08:46:21;;;;;;;89.07;52.70;;;12.30;99.90;;;;;;5007290;28;20651;-73
2024/03/04 08:48:48;;;;;;;77.50;53.65;;;12.30;99.90;;;;;;5022169;28;20229;-71
2024/03/04 08:51:17;;;;;;;79.95;52.88;;;12.30;99.90;;;;;;5013087;28;20206;-71
2024/03/04 08:53:45;;;;;;;72.35;50.10;;;12.40;99.90;;;;;;5018415;28;20214;-72
2024/03/04 08:56:12;;;;;;;87.90;53.90;;;12.50;99.90;;;;;;5010237;28;20198;-71
2024/03/04 08:58:42;;;;;;;74.38;50.05;;;12.50;99.90;;;;;;5012864;28;20284;-73
2024/03/04 09:01:09;;;;;;;79.63;52.65;;;12.60;99.90;;;;;;5012199;28;20211;-70
2024/03/04 09:03:36;;;;;;;76.85;49.53;;;12.50;99.90;;;;;;5023860;28;20290;-74
2024/03/04 09:06:04;;;;;;;83.47;51.28;;;12.50;99.90;;;;;;5025002;28;20275;-74
2024/03/04 09:08:31;;;;;;;68.70;46.83;;;12.60;99.90;;;;;;5013165;28;20197;-71
2024/03/04 09:10:57;;;;;;;84.78;51.25;;;12.70;99.90;;;;;;5019246;28;20278;-72
2024/03/04 09:13:26;;;;;;;73.22;50.63;;;12.70;99.90;;;;;;5016048;28;20225;-72
2024/03/04 09:15:54;;;;;;;83.05;54.22;;;12.70;99.90;;;;;;5014713;28;20194;-74
2024/03/04 09:18:21;;;;;;;78.80;51.10;;;12.80;99.90;;;;;;5011679;28;20236;-75
2024/03/04 09:20:48;;;;;;;75.90;52.38;;;12.90;99.90;;;;;;5017712;28;20268;-71
2024/03/04 09:23:15;;;;;;;75.80;47.10;;;12.90;99.90;;;;;;5010841;28;20257;-70
2024/03/04 09:28:10;;;;;;;74.10;50.47;;;13.50;99.90;;;;;;5029061;28;20212;-72
2024/03/04 09:30:37;;;;;;;68.30;45.92;;;13.50;99.90;;;;;;5029408;28;20563;-71
2024/03/04 09:33:07;;;;;;;77.90;51.22;;;13.60;99.90;;;;;;5031436;28;20228;-71
2024/03/04 09:35:34;;;;;;;77.10;52.53;;;13.50;99.90;;;;;;5028766;28;20200;-72
2024/03/04 09:38:01;;;;;;;72.20;50.50;;;13.70;99.90;;;;;;5032261;28;20263;-71
2024/03/04 09:40:28;;;;;;;63.10;44.83;;;13.80;99.90;;;;;;5035839;28;20263;-72
2024/03/04 09:42:55;;;;;;;65.95;44.53;;;13.90;99.90;;;;;;5036090;28;20232;-71
2024/03/04 09:45:22;;;;;;;68.65;43.75;;;14.10;99.90;;;;;;5032553;28;20649;-70
2024/03/04 09:47:53;;;;;;;70.47;49.08;;;14.10;99.90;;;;;;5031896;28;20240;-72
2024/03/04 09:50:23;;;;;;;73.95;50.10;;;13.80;99.90;;;;;;5033621;28;20654;-69
2024/03/04 09:52:50;;;;;;;88.28;54.85;;;13.70;99.90;;;;;;5032870;28;20283;-71
2024/03/04 09:55:18;;;;;;;65.43;44.90;;;13.70;99.90;;;;;;5029881;28;20200;-71
2024/03/04 09:57:45;;;;;;;66.27;43.03;;;14.30;99.90;;;;;;5024656;28;20205;-73
2024/03/04 10:00:14;;;;;;;62.30;43.00;;;15.40;99.90;;;;;;5031223;28;20440;-75
2024/03/04 10:02:42;;;;;;;66.43;44.77;;;15.90;99.90;;;;;;5033809;28;20811;-72
2024/03/04 10:05:10;;;;;;;62.77;42.40;;;16.10;99.90;;;;;;5030963;28;20481;-73
2024/03/04 10:07:38;;;;;;;64.70;45.53;;;16.50;99.90;;;;;;5027162;28;20485;-74
2024/03/04 10:10:08;;;;;;;66.60;45.70;;;17.00;99.90;;;;;;5031509;28;20486;-72
2024/03/04 10:12:35;;;;;;;66.73;47.27;;;17.30;99.90;;;;;;5031343;28;20816;-73
2024/03/04 10:15:06;;;;;;;63.63;42.03;;;17.20;99.90;;;;;;5031082;28;20506;-74
2024/03/04 10:17:33;;;;;;;56.37;42.07;;;17.30;99.90;;;;;;5027700;28;20526;-73
2024/03/04 10:20:00;;;;;;;63.53;45.60;;;17.50;99.90;;;;;;5035364;28;20531;-72
2024/03/04 10:22:33;;;;;;;50.87;37.77;;;17.20;99.90;;;;;;5026502;28;20448;-73
2024/03/04 10:25:05;;;;;;;58.37;43.50;;;17.40;99.90;;;;;;5030717;28;20486;-72
2024/03/04 10:27:32;;;;;;;58.43;42.77;;;17.90;99.90;;;;;;5028149;28;20547;-74
2024/03/04 10:30:13;;;;;;;58.77;43.40;;;18.30;99.90;;;;;;5028569;28;20809;-73
2024/03/04 10:32:45;;;;;;;52.30;41.93;;;18.50;99.90;;;;;;5028705;28;20467;-71
2024/03/04 10:35:13;;;;;;;62.63;42.17;;;18.60;99.90;;;;;;5029279;28;20485;-72
2024/03/04 10:37:40;;;;;;;55.13;40.90;;;19.00;99.90;;;;;;5030896;28;20437;-72
2024/03/04 10:40:10;;;;;;;50.20;38.90;;;19.40;99.90;;;;;;5033617;28;20872;-72
2024/03/04 10:42:37;;;;;;;55.50;40.07;;;19.60;98.90;;;;;;5032243;28;20447;-76
2024/03/04 10:45:06;;;;;;;52.10;40.73;;;19.80;99.10;;;;;;5029078;28;20498;-73
2024/03/04 10:47:34;;;;;;;51.97;42.03;;;20.00;98.40;;;;;;5033478;28;20449;-72
2024/03/04 10:50:02;;;;;;;55.67;42.67;;;20.10;97.60;;;;;;5027359;28;20871;-71
2024/03/04 10:52:29;;;;;;;53.00;40.10;;;19.80;97.90;;;;;;5016750;28;20515;-74
2024/03/04 10:54:56;;;;;;;49.40;37.50;;;19.60;98.20;;;;;;5030907;28;20444;-74
2024/03/04 10:57:28;;;;;;;46.33;34.80;;;19.30;97.90;;;;;;5037124;28;20851;-74
2024/03/04 10:59:57;;;;;;;49.70;40.10;;;19.10;98.80;;;;;;5032216;28;20844;-73
2024/03/04 11:02:38;;;;;;;49.87;39.40;;;18.70;98.80;;;;;;5025392;28;20452;-74
2024/03/04 11:05:08;;;;;;;58.33;41.33;;;18.10;99.70;;;;;;5022807;28;20586;-71
2024/03/04 11:07:39;;;;;;;58.00;43.03;;;17.80;99.90;;;;;;5028217;28;20518;-72
2024/03/04 11:10:22;;;;;;;56.53;41.07;;;17.50;99.90;;;;;;5024686;28;20530;-72
2024/03/04 11:12:59;;;;;;;60.10;45.50;;;17.20;99.90;;;;;;5026210;28;20520;-74
2024/03/04 11:15:32;;;;;;;57.03;43.50;;;16.70;99.90;;;;;;5031051;28;20525;-72
2024/03/04 11:18:04;;;;;;;59.10;41.17;;;16.10;99.90;;;;;;5027249;28;20440;-72
2024/03/04 11:20:33;;;;;;;62.43;42.40;;;15.80;99.90;;;;;;5029487;28;20506;-74
2024/03/04 11:23:00;;;;;;;54.93;40.37;;;15.90;99.90;;;;;;5027174;28;20470;-73
2024/03/04 11:25:28;;;;;;;64.10;42.73;;;16.00;99.90;;;;;;5030132;28;20517;-71
2024/03/04 11:27:57;;;;;;;56.00;40.23;;;16.00;99.90;;;;;;5032799;28;20453;-72
2024/03/04 11:30:24;;;;;;;64.63;42.78;;;15.90;99.90;;;;;;5031815;28;20451;-72
2024/03/04 11:32:51;;;;;;;68.57;44.43;;;15.80;99.90;;;;;;5027249;28;20251;-73
2024/03/04 11:35:27;;;;;;;56.57;41.53;;;15.60;99.90;;;;;;5025924;28;20445;-72
2024/03/04 11:38:06;;;;;;;58.37;42.87;;;15.60;99.90;;;;;;5027833;28;20443;-75
2024/03/04 11:40:34;;;;;;;58.40;44.90;;;15.70;99.90;;;;;;5031458;28;20451;-74
2024/03/04 11:43:02;;;;;;;61.43;44.87;;;15.20;99.90;;;;;;5029515;28;20470;-74
2024/03/04 11:45:33;;;;;;;64.53;44.00;;;15.00;99.90;;;;;;5031268;28;20514;-73
2024/03/04 11:48:00;;;;;;;57.17;41.57;;;15.20;99.90;;;;;;5031425;28;20284;-72
2024/03/04 11:50:43;;;;;;;63.78;46.42;;;15.30;99.90;;;;;;5031675;28;21000;-75
2024/03/04 11:53:30;;;;;;;74.17;45.40;;;15.30;99.90;;;;;;5024295;28;20258;-71
2024/03/04 11:55:57;;;;;;;62.10;44.20;;;15.40;99.90;;;;;;5021777;28;20439;-72
2024/03/04 11:58:26;;;;;;;80.43;50.53;;;15.20;99.90;;;;;;5030720;28;20233;-72
2024/03/04 12:00:54;;;;;;;72.50;50.47;;;14.90;99.90;;;;;;5030702;28;20208;-70
2024/03/04 12:03:21;;;;;;;69.43;46.40;;;14.70;99.90;;;;;;5024876;28;20331;-74
2024/03/04 12:05:48;;;;;;;77.20;50.33;;;14.80;99.90;;;;;;5024159;28;20706;-74
2024/03/04 12:08:15;;;;;;;64.68;45.90;;;14.70;99.90;;;;;;5027773;28;20217;-72
2024/03/04 12:10:43;;;;;;;76.45;50.50;;;14.50;99.90;;;;;;5027171;28;20213;-73
2024/03/04 12:13:10;;;;;;;73.85;51.65;;;14.40;99.90;;;;;;5034336;28;20216;-72
2024/03/04 12:15:41;;;;;;;82.13;49.97;;;14.20;99.90;;;;;;5027208;28;20196;-73
2024/03/04 12:18:08;;;;;;;73.97;52.88;;;13.90;99.90;;;;;;5032248;28;20258;-72
2024/03/04 12:20:34;;;;;;;77.68;51.67;;;13.80;99.90;;;;;;5028832;28;20208;-75
2024/03/04 12:23:03;;;;;;;82.28;53.42;;;13.60;99.90;;;;;;5030246;28;20239;-75
2024/03/04 12:25:30;;;;;;;76.63;51.60;;;13.30;99.90;;;;;;5034744;28;20239;-73
2024/03/04 12:27:58;;;;;;;79.10;51.55;;;13.20;99.90;;;;;;5037341;28;20217;-72
2024/03/04 12:30:27;;;;;;;85.47;54.25;;;13.30;99.90;;;;;;5039181;28;20262;-75
2024/03/04 12:33:00;;;;;;;81.10;52.13;;;13.30;99.90;;;;;;5031910;28;20291;-71
2024/03/04 12:35:29;;;;;;;81.43;52.28;;;13.10;99.90;;;;;;5028038;28;20201;-74